Time;durP1;ratioP1;P1;durP2;ratioP2;P2;SDS_P1;SDS_P2;PMS_P1;PMS_P2;Temp;Humidity;BMP_temperature;BMP_pressure;BME280_temperature;BME280_humidity;BME280_pressure;Samples;Min_cycle;Max_cycle;Signal;HPM_P1;HPM_P2
2024/01/26 00:00:00;;;;;;;0.85;0.85;;;-1.80;99.90;;;;;;5011371;28;20203;-72
2024/01/26 00:02:26;;;;;;;1.63;1.40;;;-1.80;99.90;;;;;;5024302;28;20210;-74
2024/01/26 00:04:51;;;;;;;1.90;1.77;;;-1.80;99.90;;;;;;5031018;28;20198;-73
2024/01/26 00:07:17;;;;;;;4.28;3.08;;;-1.80;99.90;;;;;;5030505;28;20221;-73
2024/01/26 00:10:09;;;;;;;1.13;1.13;;;-1.80;99.90;;;;;;5012734;28;20232;-74
2024/01/26 00:12:36;;;;;;;1.10;1.00;;;-1.80;99.90;;;;;;5030926;28;20296;-71
2024/01/26 00:15:02;;;;;;;0.80;0.80;;;-1.80;99.90;;;;;;5030807;28;20246;-74
2024/01/26 00:17:41;;;;;;;0.90;0.90;;;-1.80;99.90;;;;;;5012666;28;20308;-73
2024/01/26 00:20:09;;;;;;;1.20;1.10;;;-1.80;99.90;;;;;;5030441;28;20224;-73
2024/01/26 00:22:48;;;;;;;1.00;1.00;;;-1.80;99.90;;;;;;5030830;28;20189;-73
2024/01/26 00:25:24;;;;;;;0.85;0.85;;;-1.80;99.90;;;;;;5031068;28;20403;-73
2024/01/26 00:27:50;;;;;;;0.88;0.88;;;-1.70;99.90;;;;;;5030719;28;20643;-73
2024/01/26 00:30:29;;;;;;;0.77;0.77;;;-1.60;99.90;;;;;;5012791;28;20288;-73
2024/01/26 00:33:02;;;;;;;0.75;0.75;;;-1.60;99.90;;;;;;5030559;28;20321;-73
2024/01/26 00:35:28;;;;;;;0.80;0.80;;;-1.60;99.90;;;;;;5030379;28;20277;-73
2024/01/26 00:37:54;;;;;;;0.80;0.80;;;-1.50;99.90;;;;;;5030737;28;20317;-73
2024/01/26 00:40:20;;;;;;;0.90;0.90;;;-1.50;99.90;;;;;;5014500;28;20668;-73
2024/01/26 00:42:46;;;;;;;0.80;0.80;;;-1.50;99.90;;;;;;5010961;28;20229;-73
2024/01/26 00:45:12;;;;;;;0.70;0.70;;;-1.50;99.90;;;;;;5009618;28;20199;-72
2024/01/26 00:47:37;;;;;;;0.75;0.75;;;-1.40;99.90;;;;;;5010610;28;20203;-72
2024/01/26 00:50:04;;;;;;;6.28;1.63;;;-1.50;99.90;;;;;;5009546;28;20202;-72
2024/01/26 00:52:29;;;;;;;0.70;0.70;;;-1.40;99.90;;;;;;5011311;28;20199;-72
2024/01/26 00:54:55;;;;;;;0.70;0.70;;;-1.40;99.90;;;;;;5010719;28;20565;-74
2024/01/26 00:57:21;;;;;;;0.80;0.80;;;-1.40;99.90;;;;;;5012490;28;20635;-73
2024/01/26 00:59:47;;;;;;;0.80;0.80;;;-1.40;99.90;;;;;;5030340;28;20225;-74
2024/01/26 01:02:14;;;;;;;0.70;0.70;;;-1.40;99.90;;;;;;5030295;28;20272;-73
2024/01/26 01:04:40;;;;;;;0.68;0.68;;;-1.40;99.90;;;;;;5030224;28;20244;-74
2024/01/26 01:07:05;;;;;;;0.80;0.80;;;-1.40;99.90;;;;;;5030092;28;20237;-74
2024/01/26 01:09:31;;;;;;;0.70;0.70;;;-1.40;99.90;;;;;;5030055;28;20523;-74
2024/01/26 01:11:58;;;;;;;0.93;0.93;;;-1.40;99.90;;;;;;5030590;28;20193;-74
2024/01/26 01:14:24;;;;;;;1.10;1.10;;;-1.30;99.90;;;;;;5029985;28;20202;-74
2024/01/26 01:16:50;;;;;;;0.60;0.60;;;-1.30;99.90;;;;;;5030120;28;20621;-74
2024/01/26 01:19:16;;;;;;;0.80;0.80;;;-1.30;99.90;;;;;;5030183;28;20465;-74
2024/01/26 01:21:43;;;;;;;0.70;0.70;;;-1.30;99.90;;;;;;5032732;28;20291;-74
2024/01/26 01:24:08;;;;;;;1.48;1.38;;;-1.20;99.90;;;;;;5033771;28;20198;-73
2024/01/26 01:26:34;;;;;;;0.63;0.63;;;-1.20;99.90;;;;;;5033551;28;20244;-74
2024/01/26 01:29:00;;;;;;;0.80;0.80;;;-1.20;99.90;;;;;;5016006;28;20213;-74
2024/01/26 01:31:27;;;;;;;1.95;1.80;;;-1.20;99.90;;;;;;5033382;28;20285;-74
2024/01/26 01:33:52;;;;;;;0.73;0.73;;;-1.20;99.90;;;;;;5033819;28;20599;-69
2024/01/26 01:36:18;;;;;;;0.70;0.70;;;-1.10;99.90;;;;;;5033330;28;20297;-68
2024/01/26 01:38:44;;;;;;;0.80;0.80;;;-1.10;99.90;;;;;;5033227;28;20551;-69
2024/01/26 01:41:09;;;;;;;0.80;0.80;;;-1.10;99.90;;;;;;5033408;28;20201;-68
2024/01/26 01:43:35;;;;;;;0.95;0.95;;;-1.10;99.90;;;;;;5033192;28;20195;-69
2024/01/26 01:46:01;;;;;;;0.80;0.80;;;-1.10;99.90;;;;;;5033389;28;20197;-68
2024/01/26 01:48:27;;;;;;;1.75;1.65;;;-1.10;99.90;;;;;;5033135;28;20194;-68
2024/01/26 01:50:53;;;;;;;0.85;0.85;;;-1.10;99.90;;;;;;5033160;28;20198;-70
2024/01/26 01:53:20;;;;;;;0.70;0.70;;;-1.00;99.90;;;;;;5032821;28;20202;-69
2024/01/26 01:55:46;;;;;;;0.70;0.70;;;-1.00;99.90;;;;;;5015226;28;20202;-68
2024/01/26 01:58:13;;;;;;;0.70;0.70;;;-1.00;99.90;;;;;;5033094;28;20669;-69
2024/01/26 02:00:41;;;;;;;0.80;0.80;;;-1.00;99.90;;;;;;5032889;28;20263;-69
2024/01/26 02:03:06;;;;;;;0.70;0.70;;;-1.00;99.90;;;;;;5032785;28;20194;-68
2024/01/26 02:05:33;;;;;;;1.08;0.98;;;-1.00;99.90;;;;;;5032676;28;20232;-68
2024/01/26 02:07:59;;;;;;;0.80;0.80;;;-1.00;99.90;;;;;;5032779;28;20218;-69
2024/01/26 02:10:25;;;;;;;0.70;0.70;;;-1.00;99.90;;;;;;5032688;28;20189;-68
2024/01/26 02:12:51;;;;;;;0.65;0.65;;;-1.00;99.90;;;;;;5032849;28;20202;-69
2024/01/26 02:15:16;;;;;;;0.90;0.90;;;-0.90;99.90;;;;;;5014984;28;20213;-69
2024/01/26 02:17:42;;;;;;;0.70;0.70;;;-0.90;99.90;;;;;;5014216;28;20670;-69
2024/01/26 02:20:09;;;;;;;0.80;0.80;;;-0.80;99.90;;;;;;5032447;28;20661;-69
2024/01/26 02:22:35;;;;;;;0.70;0.70;;;-0.80;99.90;;;;;;5032451;28;20734;-68
2024/01/26 02:25:01;;;;;;;0.60;0.60;;;-0.80;99.90;;;;;;5032642;28;20194;-68
2024/01/26 02:27:27;;;;;;;0.70;0.70;;;-0.80;99.90;;;;;;5032356;28;20244;-69
2024/01/26 02:29:52;;;;;;;0.70;0.70;;;-0.80;99.90;;;;;;5031867;28;20264;-69
2024/01/26 02:32:18;;;;;;;0.80;0.80;;;-0.80;99.90;;;;;;5031845;28;20425;-69
2024/01/26 02:34:44;;;;;;;0.77;0.77;;;-0.80;99.90;;;;;;5032676;28;20607;-68
2024/01/26 02:37:10;;;;;;;0.90;0.90;;;-0.70;99.90;;;;;;5032374;28;20293;-68
2024/01/26 02:39:37;;;;;;;0.77;0.77;;;-0.70;99.90;;;;;;5032103;28;20186;-68
2024/01/26 02:42:03;;;;;;;0.82;0.82;;;-0.60;99.90;;;;;;5032290;28;20190;-69
2024/01/26 02:44:28;;;;;;;0.70;0.70;;;-0.60;99.90;;;;;;5032119;28;20734;-70
2024/01/26 02:46:54;;;;;;;0.70;0.70;;;-0.60;99.90;;;;;;5032224;28;20194;-70
2024/01/26 02:49:20;;;;;;;0.80;0.80;;;-0.60;99.90;;;;;;5014051;28;20205;-70
2024/01/26 02:51:45;;;;;;;0.80;0.80;;;-0.60;99.90;;;;;;5031948;28;20213;-70
2024/01/26 02:54:11;;;;;;;0.93;0.90;;;-0.50;99.90;;;;;;5032051;28;20201;-70
2024/01/26 02:56:37;;;;;;;0.70;0.70;;;-0.50;99.90;;;;;;5031717;28;20203;-70
2024/01/26 02:59:02;;;;;;;0.70;0.70;;;-0.50;99.90;;;;;;5032055;28;20249;-70
2024/01/26 03:01:28;;;;;;;0.90;0.90;;;-0.40;99.90;;;;;;5031693;28;20572;-70
2024/01/26 03:03:53;;;;;;;0.70;0.70;;;-0.40;99.90;;;;;;5032139;28;20183;-70
2024/01/26 03:06:19;;;;;;;0.70;0.70;;;-0.40;99.90;;;;;;5031395;28;20267;-70
2024/01/26 03:08:45;;;;;;;0.70;0.70;;;-0.40;99.90;;;;;;5013967;28;20279;-71
2024/01/26 03:11:14;;;;;;;0.80;0.80;;;-0.30;99.90;;;;;;5031859;28;20677;-70
2024/01/26 03:13:40;;;;;;;0.73;0.73;;;-0.30;99.90;;;;;;5031553;28;20249;-69
2024/01/26 03:16:06;;;;;;;0.60;0.60;;;-0.30;99.90;;;;;;5031720;28;20207;-69
2024/01/26 03:18:32;;;;;;;0.60;0.60;;;-0.30;99.90;;;;;;5031459;28;20201;-69
2024/01/26 03:20:57;;;;;;;0.60;0.60;;;-0.30;99.90;;;;;;5031441;28;20243;-70
2024/01/26 03:23:23;;;;;;;0.80;0.80;;;-0.20;99.90;;;;;;5031321;28;20221;-70
2024/01/26 03:25:49;;;;;;;0.77;0.77;;;-0.20;99.90;;;;;;5031885;28;20244;-70
2024/01/26 03:28:14;;;;;;;0.70;0.70;;;-0.20;99.90;;;;;;5031305;28;20222;-70
2024/01/26 03:30:42;;;;;;;0.70;0.70;;;-0.20;99.90;;;;;;5031053;28;20213;-70
2024/01/26 03:33:08;;;;;;;0.70;0.70;;;-0.10;99.90;;;;;;5030858;28;20244;-70
2024/01/26 03:35:34;;;;;;;0.80;0.80;;;-0.10;99.90;;;;;;5031141;28;20261;-70
2024/01/26 03:38:00;;;;;;;0.63;0.63;;;-0.10;99.90;;;;;;5031402;28;20222;-70
2024/01/26 03:40:27;;;;;;;0.85;0.85;;;-0.10;99.90;;;;;;5031132;28;20625;-70
2024/01/26 03:42:53;;;;;;;0.80;0.80;;;-0.10;99.90;;;;;;5030556;28;20218;-70
2024/01/26 03:45:19;;;;;;;0.70;0.70;;;0.00;99.90;;;;;;5031015;28;20205;-70
2024/01/26 03:47:44;;;;;;;0.80;0.80;;;0.00;99.90;;;;;;5031522;28;20194;-71
2024/01/26 03:50:10;;;;;;;0.70;0.70;;;0.10;99.90;;;;;;5031058;28;20273;-70
2024/01/26 03:52:36;;;;;;;0.70;0.70;;;0.00;99.90;;;;;;5030903;28;20518;-70
2024/01/26 03:55:02;;;;;;;0.82;0.82;;;0.10;99.90;;;;;;5031200;28;20205;-70
2024/01/26 03:57:27;;;;;;;0.70;0.70;;;0.00;99.90;;;;;;5031025;28;20289;-70
2024/01/26 03:59:54;;;;;;;0.93;0.93;;;0.10;99.90;;;;;;5013172;28;20199;-71
2024/01/26 04:02:20;;;;;;;0.70;0.70;;;0.10;99.90;;;;;;5021604;28;20194;-70
2024/01/26 04:04:45;;;;;;;0.80;0.80;;;0.10;99.90;;;;;;5030772;28;20210;-70
2024/01/26 04:07:11;;;;;;;1.00;1.00;;;0.10;99.90;;;;;;5030743;28;20234;-70
2024/01/26 04:09:37;;;;;;;0.98;0.98;;;0.20;99.90;;;;;;5030687;28;20205;-70
2024/01/26 04:12:04;;;;;;;0.70;0.70;;;0.20;99.90;;;;;;5030897;28;20194;-70
2024/01/26 04:14:30;;;;;;;0.70;0.70;;;0.20;99.90;;;;;;5030685;28;20194;-70
2024/01/26 04:16:55;;;;;;;0.80;0.80;;;0.20;99.90;;;;;;5029457;28;20221;-70
2024/01/26 04:19:21;;;;;;;0.63;0.63;;;0.20;99.90;;;;;;5030588;28;20400;-71
2024/01/26 04:21:49;;;;;;;0.68;0.68;;;0.20;99.90;;;;;;5030513;28;20186;-70
2024/01/26 04:24:15;;;;;;;0.73;0.73;;;0.20;99.90;;;;;;5029617;28;20205;-70
2024/01/26 04:26:41;;;;;;;1.15;1.15;;;0.30;99.90;;;;;;5030563;28;20201;-70
2024/01/26 04:29:07;;;;;;;0.80;0.80;;;0.30;99.90;;;;;;5030201;28;20217;-70
2024/01/26 04:31:33;;;;;;;0.60;0.60;;;0.30;99.90;;;;;;5030394;28;20198;-70
2024/01/26 04:33:59;;;;;;;0.80;0.80;;;0.30;99.90;;;;;;5030708;28;20194;-70
2024/01/26 04:36:24;;;;;;;0.77;0.77;;;0.30;99.90;;;;;;5030369;28;20205;-70
2024/01/26 04:38:50;;;;;;;0.60;0.60;;;0.30;99.90;;;;;;5030551;28;20199;-70
2024/01/26 04:41:15;;;;;;;0.90;0.85;;;0.30;99.90;;;;;;5030499;28;20190;-70
2024/01/26 04:43:43;;;;;;;0.70;0.70;;;0.30;99.90;;;;;;5030149;28;20251;-70
2024/01/26 04:46:08;;;;;;;0.70;0.70;;;0.30;99.90;;;;;;5030540;28;20604;-70
2024/01/26 04:48:34;;;;;;;0.60;0.60;;;0.30;99.90;;;;;;5030294;28;20251;-70
2024/01/26 04:51:00;;;;;;;0.70;0.70;;;0.30;99.90;;;;;;5030467;28;20232;-70
2024/01/26 04:53:25;;;;;;;0.60;0.60;;;0.30;99.90;;;;;;5012446;28;20285;-71
2024/01/26 04:55:51;;;;;;;0.70;0.70;;;0.40;99.90;;;;;;5033676;28;20292;-70
2024/01/26 04:58:17;;;;;;;0.70;0.70;;;0.40;99.90;;;;;;5034456;28;20233;-70
2024/01/26 05:00:42;;;;;;;0.70;0.70;;;0.40;99.90;;;;;;5034014;28;20217;-70
2024/01/26 05:03:08;;;;;;;0.70;0.70;;;0.30;99.90;;;;;;5034435;28;20547;-71
2024/01/26 05:05:33;;;;;;;0.63;0.63;;;0.30;99.90;;;;;;5034025;28;20194;-74
2024/01/26 05:08:00;;;;;;;0.60;0.60;;;0.30;99.90;;;;;;5034047;28;20226;-73
2024/01/26 05:10:25;;;;;;;0.75;0.75;;;0.30;99.90;;;;;;5033858;28;20712;-73
2024/01/26 05:12:51;;;;;;;0.70;0.70;;;0.40;99.90;;;;;;5034047;28;20491;-73
2024/01/26 05:15:17;;;;;;;0.70;0.70;;;0.40;99.90;;;;;;5033874;28;20194;-73
2024/01/26 05:17:43;;;;;;;0.77;0.77;;;0.40;99.90;;;;;;5015820;28;20260;-74
2024/01/26 05:20:09;;;;;;;0.60;0.60;;;0.40;99.90;;;;;;5033893;28;20217;-73
2024/01/26 05:22:34;;;;;;;0.60;0.60;;;0.40;99.90;;;;;;5015770;28;20280;-73
2024/01/26 05:25:00;;;;;;;0.80;0.80;;;0.40;99.90;;;;;;5033538;28;20281;-74
2024/01/26 05:27:26;;;;;;;0.80;0.80;;;0.40;99.90;;;;;;5033633;28;20220;-73
2024/01/26 05:29:52;;;;;;;0.93;0.90;;;0.40;99.90;;;;;;5033615;28;20616;-74
2024/01/26 05:32:19;;;;;;;0.70;0.70;;;0.40;99.90;;;;;;5033536;28;20195;-74
2024/01/26 05:34:45;;;;;;;0.65;0.65;;;0.40;99.90;;;;;;5033674;28;20190;-74
2024/01/26 05:37:11;;;;;;;0.60;0.60;;;0.40;99.90;;;;;;5033589;28;20267;-73
2024/01/26 05:39:36;;;;;;;0.60;0.60;;;0.40;99.90;;;;;;5033101;28;20203;-73
2024/01/26 05:42:02;;;;;;;0.70;0.70;;;0.40;99.90;;;;;;5033537;28;20235;-73
2024/01/26 05:44:28;;;;;;;0.80;0.80;;;0.40;99.90;;;;;;5033241;28;20333;-74
2024/01/26 05:46:53;;;;;;;0.75;0.75;;;0.40;99.90;;;;;;5033675;28;20182;-75
2024/01/26 05:49:19;;;;;;;0.70;0.70;;;0.50;99.90;;;;;;5033131;28;20287;-75
2024/01/26 05:51:44;;;;;;;2.90;2.20;;;0.50;99.90;;;;;;5015461;28;20198;-75
2024/01/26 05:54:11;;;;;;;0.90;0.90;;;0.50;99.90;;;;;;5033117;28;20232;-73
2024/01/26 05:56:41;;;;;;;0.70;0.70;;;0.50;99.90;;;;;;5033069;28;20678;-74
2024/01/26 05:59:07;;;;;;;0.75;0.75;;;0.50;99.90;;;;;;5033152;28;20214;-73
2024/01/26 06:01:34;;;;;;;0.70;0.70;;;0.50;99.90;;;;;;5032755;28;20198;-72
2024/01/26 06:04:01;;;;;;;0.77;0.77;;;0.50;99.90;;;;;;5015260;28;20333;-73
2024/01/26 06:06:26;;;;;;;1.02;1.02;;;0.50;99.90;;;;;;5031771;28;20697;-74
2024/01/26 06:08:52;;;;;;;0.80;0.80;;;0.50;99.90;;;;;;5015108;28;20194;-72
2024/01/26 06:11:20;;;;;;;0.70;0.70;;;0.50;99.90;;;;;;5032793;28;20234;-74
2024/01/26 06:13:46;;;;;;;0.60;0.60;;;0.50;99.90;;;;;;5032922;28;20249;-69
2024/01/26 06:16:13;;;;;;;0.70;0.70;;;0.50;99.90;;;;;;5032767;28;20681;-69
2024/01/26 06:18:39;;;;;;;0.70;0.70;;;0.50;99.90;;;;;;5032539;28;20636;-69
2024/01/26 06:21:05;;;;;;;0.50;0.50;;;0.60;99.90;;;;;;5032174;28;20280;-69
2024/01/26 06:23:31;;;;;;;0.70;0.70;;;0.50;99.90;;;;;;5014570;28;20190;-69
2024/01/26 06:25:56;;;;;;;0.60;0.60;;;0.60;99.90;;;;;;5033059;28;20190;-68
2024/01/26 06:28:22;;;;;;;0.82;0.82;;;0.60;99.90;;;;;;5032314;28;20201;-68
2024/01/26 06:30:48;;;;;;;0.70;0.70;;;0.60;99.90;;;;;;5014604;28;20198;-69
2024/01/26 06:33:14;;;;;;;0.70;0.70;;;0.50;99.90;;;;;;5032611;28;20186;-70
2024/01/26 06:35:40;;;;;;;0.80;0.80;;;0.60;99.90;;;;;;5032050;28;20256;-70
2024/01/26 06:38:05;;;;;;;0.75;0.75;;;0.50;99.90;;;;;;5032424;28;20628;-70
2024/01/26 06:40:31;;;;;;;1.30;1.20;;;0.60;99.90;;;;;;5032371;28;20205;-69
2024/01/26 06:42:57;;;;;;;0.60;0.60;;;0.60;99.90;;;;;;5032714;28;20213;-69
2024/01/26 06:45:22;;;;;;;0.70;0.70;;;0.60;99.90;;;;;;5032251;28;20221;-69
2024/01/26 06:47:48;;;;;;;0.80;0.80;;;0.60;99.90;;;;;;5032299;28;20252;-69
2024/01/26 06:50:14;;;;;;;0.80;0.80;;;0.60;99.90;;;;;;5032088;28;20401;-69
2024/01/26 06:52:39;;;;;;;0.82;0.82;;;0.60;99.90;;;;;;5014197;28;20646;-70
2024/01/26 06:55:05;;;;;;;0.80;0.80;;;0.60;99.90;;;;;;5032074;28;20233;-69
2024/01/26 06:57:31;;;;;;;0.65;0.65;;;0.60;99.90;;;;;;5014003;28;20685;-69
2024/01/26 06:59:57;;;;;;;1.38;1.27;;;0.60;99.90;;;;;;5032237;28;20642;-69
2024/01/26 07:02:22;;;;;;;0.70;0.70;;;0.70;99.90;;;;;;5031780;28;20202;-70
2024/01/26 07:04:48;;;;;;;0.80;0.80;;;0.70;99.90;;;;;;5032098;28;20546;-70
2024/01/26 07:07:14;;;;;;;0.70;0.70;;;0.70;99.90;;;;;;5031766;28;20690;-70
2024/01/26 07:09:39;;;;;;;0.80;0.80;;;0.70;99.90;;;;;;5030325;28;20293;-69
2024/01/26 07:12:05;;;;;;;0.70;0.70;;;0.70;99.90;;;;;;5031794;28;20290;-70
2024/01/26 07:14:31;;;;;;;0.70;0.70;;;0.70;99.90;;;;;;5031564;28;20190;-69
2024/01/26 07:16:56;;;;;;;0.60;0.60;;;0.70;99.90;;;;;;5031506;28;20209;-71
2024/01/26 07:19:22;;;;;;;1.00;1.00;;;0.70;99.90;;;;;;5031268;28;20201;-69
2024/01/26 07:21:48;;;;;;;0.60;0.60;;;0.80;99.90;;;;;;5031433;28;20301;-69
2024/01/26 07:24:14;;;;;;;0.80;0.80;;;0.80;99.90;;;;;;5031962;28;20194;-70
2024/01/26 07:26:41;;;;;;;0.80;0.80;;;0.70;99.90;;;;;;5032005;28;20205;-70
2024/01/26 07:29:06;;;;;;;0.80;0.80;;;0.80;99.90;;;;;;5031612;28;20190;-70
2024/01/26 07:31:32;;;;;;;0.77;0.77;;;0.80;99.90;;;;;;5031611;28;20193;-70
2024/01/26 07:33:58;;;;;;;0.63;0.63;;;0.80;99.90;;;;;;5031893;28;20202;-70
2024/01/26 07:36:24;;;;;;;0.88;0.88;;;0.80;99.90;;;;;;5030976;28;20244;-69
2024/01/26 07:38:50;;;;;;;0.70;0.70;;;0.80;99.90;;;;;;5031752;28;20202;-70
2024/01/26 07:41:15;;;;;;;0.60;0.60;;;0.80;99.90;;;;;;5032304;28;20273;-70
2024/01/26 07:43:41;;;;;;;0.80;0.80;;;0.80;99.90;;;;;;5031406;28;20658;-70
2024/01/26 07:46:07;;;;;;;0.82;0.82;;;0.80;99.90;;;;;;5031340;28;20206;-70
2024/01/26 07:48:32;;;;;;;0.70;0.70;;;0.80;99.90;;;;;;5031033;28;20244;-69
2024/01/26 07:50:58;;;;;;;0.70;0.70;;;0.80;99.90;;;;;;5031276;28;20201;-70
2024/01/26 07:53:24;;;;;;;0.70;0.70;;;0.90;99.90;;;;;;5031395;28;20194;-70
2024/01/26 07:55:50;;;;;;;0.70;0.70;;;0.90;99.90;;;;;;5013885;28;20206;-69
2024/01/26 08:02:01;;;;;;;0.70;0.70;;;0.80;99.90;;;;;;4905752;29;20258;-70
2024/01/26 08:04:26;;;;;;;0.70;0.70;;;0.90;99.90;;;;;;4931597;29;20670;-69
2024/01/26 08:06:52;;;;;;;0.70;0.70;;;0.90;99.90;;;;;;4931348;29;20237;-69
2024/01/26 08:09:19;;;;;;;0.70;0.70;;;0.90;99.90;;;;;;4931828;29;20214;-67
2024/01/26 08:11:44;;;;;;;0.70;0.70;;;0.80;99.90;;;;;;4932104;29;20767;-69
2024/01/26 08:14:10;;;;;;;0.70;0.70;;;0.80;99.90;;;;;;4915337;29;20197;-70
2024/01/26 08:16:36;;;;;;;0.70;0.70;;;0.90;99.90;;;;;;4930889;29;20213;-69
2024/01/26 08:19:02;;;;;;;0.60;0.60;;;0.90;99.90;;;;;;4931199;29;20232;-70
2024/01/26 08:21:27;;;;;;;0.68;0.68;;;0.90;99.90;;;;;;4931201;29;20333;-69
2024/01/26 08:23:53;;;;;;;0.77;0.77;;;0.90;99.90;;;;;;4931432;29;20208;-70
2024/01/26 08:26:19;;;;;;;0.70;0.70;;;0.90;99.90;;;;;;4931039;29;20691;-70
2024/01/26 08:28:47;;;;;;;0.90;0.90;;;0.90;99.90;;;;;;4931022;29;20213;-70
2024/01/26 08:31:13;;;;;;;0.70;0.70;;;0.90;99.90;;;;;;4935007;29;20213;-69
2024/01/26 08:33:39;;;;;;;0.80;0.80;;;0.90;99.90;;;;;;4935428;29;20345;-70
2024/01/26 08:36:06;;;;;;;0.60;0.60;;;0.90;99.90;;;;;;4935260;29;20207;-72
2024/01/26 08:38:31;;;;;;;0.80;0.80;;;0.90;99.90;;;;;;4966391;28;20598;-71
2024/01/26 08:40:57;;;;;;;0.60;0.60;;;1.00;99.90;;;;;;5015024;28;20241;-69
2024/01/26 08:43:23;;;;;;;0.60;0.60;;;1.00;99.90;;;;;;5014948;28;20237;-70
2024/01/26 08:45:49;;;;;;;0.60;0.60;;;1.00;99.90;;;;;;5014843;28;20270;-69
2024/01/26 08:48:14;;;;;;;1.15;1.05;;;1.00;99.90;;;;;;5014744;28;20605;-70
2024/01/26 08:50:40;;;;;;;1.30;1.00;;;1.10;99.90;;;;;;5014508;28;20568;-70
2024/01/26 08:53:06;;;;;;;0.80;0.80;;;1.10;99.90;;;;;;5014973;28;20218;-70
2024/01/26 08:55:33;;;;;;;0.60;0.60;;;1.00;99.90;;;;;;4996850;28;20302;-69
2024/01/26 08:57:58;;;;;;;0.73;0.73;;;1.10;99.90;;;;;;5014526;28;20210;-69
2024/01/26 09:00:24;;;;;;;1.77;1.33;;;1.10;99.90;;;;;;5014256;28;20797;-69
2024/01/26 09:02:50;;;;;;;0.70;0.70;;;1.10;99.90;;;;;;4996842;28;20294;-69
2024/01/26 09:05:15;;;;;;;1.08;1.08;;;1.10;99.90;;;;;;5014313;28;20195;-70
2024/01/26 09:07:41;;;;;;;0.85;0.85;;;1.10;99.90;;;;;;5014177;28;20698;-69
2024/01/26 09:10:07;;;;;;;0.70;0.70;;;1.20;99.90;;;;;;5028295;28;20680;-69
2024/01/26 09:12:33;;;;;;;0.80;0.80;;;1.20;99.90;;;;;;5033792;28;20684;-70
2024/01/26 09:14:59;;;;;;;0.70;0.70;;;1.20;99.90;;;;;;5034080;28;20206;-70
2024/01/26 09:17:25;;;;;;;0.70;0.70;;;1.30;99.90;;;;;;5033608;28;20205;-70
2024/01/26 09:19:50;;;;;;;0.73;0.73;;;1.30;99.90;;;;;;5015901;28;20198;-68
2024/01/26 09:22:16;;;;;;;0.90;0.90;;;1.30;99.90;;;;;;5033846;28;20268;-71
2024/01/26 09:24:42;;;;;;;0.70;0.70;;;1.30;99.90;;;;;;5033747;28;20198;-70
2024/01/26 09:27:08;;;;;;;1.23;1.13;;;1.30;99.90;;;;;;5033906;28;20623;-70
2024/01/26 09:29:33;;;;;;;0.70;0.70;;;1.30;99.90;;;;;;5033495;28;20248;-69
2024/01/26 09:31:59;;;;;;;0.70;0.70;;;1.30;99.90;;;;;;5016030;28;20534;-71
2024/01/26 09:34:26;;;;;;;0.60;0.60;;;1.30;99.90;;;;;;5015654;28;20220;-71
2024/01/26 09:36:51;;;;;;;0.75;0.75;;;1.40;99.90;;;;;;5033482;28;20727;-70
2024/01/26 09:39:17;;;;;;;0.70;0.70;;;1.30;99.90;;;;;;5033826;28;20654;-70
2024/01/26 09:41:44;;;;;;;0.70;0.70;;;1.40;99.90;;;;;;5032251;28;20197;-70
2024/01/26 09:44:10;;;;;;;0.70;0.70;;;1.40;99.90;;;;;;5033659;28;20194;-75
2024/01/26 09:46:36;;;;;;;0.70;0.70;;;1.50;99.90;;;;;;5033191;28;20401;-72
2024/01/26 09:49:06;;;;;;;0.70;0.70;;;1.50;99.90;;;;;;5015790;28;20603;-73
2024/01/26 09:51:32;;;;;;;0.73;0.73;;;1.50;99.90;;;;;;5033471;28;20661;-72
2024/01/26 09:54:00;;;;;;;0.68;0.68;;;1.50;99.90;;;;;;5033384;28;20190;-75
2024/01/26 09:56:29;;;;;;;0.80;0.80;;;1.60;99.90;;;;;;5032880;28;20209;-75
2024/01/26 09:58:54;;;;;;;1.95;1.67;;;1.50;99.90;;;;;;5015530;28;20194;-74
2024/01/26 10:01:22;;;;;;;0.60;0.60;;;1.50;99.90;;;;;;5031274;28;20213;-73
2024/01/26 10:03:50;;;;;;;0.80;0.80;;;1.50;99.90;;;;;;5035587;28;20205;-70
2024/01/26 10:06:16;;;;;;;0.60;0.60;;;1.50;99.90;;;;;;5030459;28;20221;-71
2024/01/26 10:08:42;;;;;;;0.63;0.63;;;1.50;99.90;;;;;;5009835;28;20217;-70
2024/01/26 10:11:08;;;;;;;0.70;0.70;;;1.50;99.90;;;;;;5032583;28;20658;-72
2024/01/26 10:13:34;;;;;;;0.68;0.68;;;1.50;99.90;;;;;;5014924;28;20207;-73
2024/01/26 10:16:12;;;;;;;0.80;0.80;;;1.50;99.90;;;;;;5015134;28;20213;-72
2024/01/26 10:18:55;;;;;;;2.30;1.08;;;1.50;99.90;;;;;;5012033;28;20688;-72
2024/01/26 10:21:22;;;;;;;0.70;0.70;;;1.50;99.90;;;;;;5032304;28;20202;-73
2024/01/26 10:23:48;;;;;;;0.80;0.80;;;1.50;99.90;;;;;;5015160;28;20276;-72
2024/01/26 10:26:14;;;;;;;0.70;0.70;;;1.50;99.90;;;;;;5032973;28;20226;-73
2024/01/26 10:28:40;;;;;;;0.70;0.70;;;1.60;99.90;;;;;;5033915;28;20194;-73
2024/01/26 10:31:05;;;;;;;0.98;0.98;;;1.60;99.90;;;;;;5037967;28;20205;-72
2024/01/26 10:33:32;;;;;;;0.63;0.63;;;1.50;99.90;;;;;;5032364;28;20269;-72
2024/01/26 10:36:01;;;;;;;0.68;0.68;;;1.60;99.90;;;;;;5032503;28;20190;-71
2024/01/26 10:38:31;;;;;;;0.63;0.63;;;1.60;99.90;;;;;;5032580;28;20715;-72
2024/01/26 10:41:05;;;;;;;0.60;0.60;;;1.60;99.90;;;;;;5032494;28;20198;-72
2024/01/26 10:43:31;;;;;;;0.57;0.57;;;1.60;99.90;;;;;;5032122;28;20668;-72
2024/01/26 10:45:58;;;;;;;0.80;0.80;;;1.60;99.90;;;;;;5032289;28;20194;-71
2024/01/26 10:48:27;;;;;;;0.73;0.73;;;1.60;99.90;;;;;;5031975;28;20194;-72
2024/01/26 10:50:53;;;;;;;0.70;0.70;;;1.60;99.90;;;;;;5032121;28;20191;-72
2024/01/26 10:53:21;;;;;;;0.90;0.90;;;1.60;99.90;;;;;;5013874;28;20205;-71
2024/01/26 10:55:49;;;;;;;0.68;0.68;;;1.60;99.90;;;;;;5031989;28;20194;-68
2024/01/26 10:58:15;;;;;;;0.70;0.70;;;1.60;99.90;;;;;;5031879;28;20206;-69
2024/01/26 11:00:41;;;;;;;0.88;0.88;;;1.60;99.90;;;;;;5031505;28;20240;-68
2024/01/26 11:03:09;;;;;;;0.68;0.68;;;1.60;99.90;;;;;;5031731;28;20662;-68
2024/01/26 11:05:34;;;;;;;0.80;0.80;;;1.60;99.90;;;;;;5031587;28;20580;-68
2024/01/26 11:08:06;;;;;;;0.70;0.70;;;1.60;99.90;;;;;;5031611;28;20238;-67
2024/01/26 11:10:31;;;;;;;0.70;0.70;;;1.50;99.90;;;;;;5031446;28;20194;-67
2024/01/26 11:13:02;;;;;;;0.60;0.60;;;1.50;99.90;;;;;;5031750;28;20557;-68
2024/01/26 11:15:29;;;;;;;0.68;0.68;;;1.50;99.90;;;;;;5013739;28;20198;-68
2024/01/26 11:17:59;;;;;;;0.70;0.70;;;1.50;99.90;;;;;;5031281;28;20217;-67
2024/01/26 11:20:36;;;;;;;0.60;0.60;;;1.40;99.90;;;;;;5031282;28;20244;-68
2024/01/26 11:23:07;;;;;;;0.63;0.63;;;1.50;99.90;;;;;;5031777;28;20641;-66
2024/01/26 11:25:37;;;;;;;0.70;0.70;;;1.50;99.90;;;;;;5031651;28;20370;-68
2024/01/26 11:28:05;;;;;;;1.02;1.02;;;1.50;99.90;;;;;;5031852;28;20200;-67
2024/01/26 11:30:31;;;;;;;0.70;0.70;;;1.40;99.90;;;;;;5031414;28;20269;-68
2024/01/26 11:32:57;;;;;;;0.85;0.85;;;1.40;99.90;;;;;;5031639;28;20359;-67
2024/01/26 11:35:23;;;;;;;0.68;0.68;;;1.40;99.90;;;;;;5031317;28;20195;-68
2024/01/26 11:37:53;;;;;;;0.68;0.68;;;1.40;99.90;;;;;;5031364;28;20229;-68
2024/01/26 11:40:20;;;;;;;0.68;0.68;;;1.40;99.90;;;;;;5013268;28;20213;-68
2024/01/26 11:42:47;;;;;;;0.70;0.70;;;1.50;99.90;;;;;;5031230;28;20181;-68
2024/01/26 11:45:23;;;;;;;0.70;0.70;;;1.50;99.90;;;;;;5013391;28;20194;-68
2024/01/26 11:47:49;;;;;;;0.80;0.80;;;1.50;99.90;;;;;;5031089;28;20198;-68
2024/01/26 11:50:15;;;;;;;0.70;0.70;;;1.50;99.90;;;;;;5031000;28;20724;-69
2024/01/26 11:52:40;;;;;;;0.60;0.60;;;1.50;99.90;;;;;;5030915;28;20194;-71
2024/01/26 11:55:06;;;;;;;0.80;0.80;;;1.50;99.90;;;;;;5013470;28;20198;-69
2024/01/26 11:57:32;;;;;;;0.65;0.65;;;1.60;99.90;;;;;;5030552;28;20205;-69
2024/01/26 11:59:59;;;;;;;0.73;0.73;;;1.60;99.90;;;;;;5030960;28;20217;-68
2024/01/26 12:02:25;;;;;;;0.70;0.70;;;1.60;99.90;;;;;;5030585;28;20336;-68
2024/01/26 12:04:51;;;;;;;0.65;0.65;;;1.60;99.90;;;;;;5030397;28;20198;-68
2024/01/26 12:07:16;;;;;;;0.73;0.73;;;1.70;99.90;;;;;;5030759;28;20309;-68
2024/01/26 12:09:43;;;;;;;0.98;0.98;;;1.70;99.90;;;;;;5030666;28;20197;-68
2024/01/26 12:12:10;;;;;;;0.63;0.63;;;1.70;99.90;;;;;;5030672;28;20635;-68
2024/01/26 12:14:36;;;;;;;0.90;0.90;;;1.70;99.90;;;;;;5030562;28;20680;-68
2024/01/26 12:17:02;;;;;;;0.70;0.70;;;1.70;99.90;;;;;;5030730;28;20677;-68
2024/01/26 12:19:28;;;;;;;0.80;0.80;;;1.70;99.90;;;;;;5031198;28;20186;-69
2024/01/26 12:21:53;;;;;;;0.80;0.80;;;1.70;99.90;;;;;;5013067;28;20297;-67
2024/01/26 12:24:21;;;;;;;0.70;0.70;;;1.70;99.90;;;;;;5030808;28;20198;-68
2024/01/26 12:26:47;;;;;;;0.70;0.70;;;1.70;99.90;;;;;;5030689;28;20674;-67
2024/01/26 12:29:12;;;;;;;7.20;2.15;;;1.80;99.90;;;;;;5030600;28;20224;-69
2024/01/26 12:31:38;;;;;;;0.82;0.82;;;1.80;99.90;;;;;;5030706;28;20202;-68
2024/01/26 12:34:12;;;;;;;0.60;0.60;;;1.80;99.90;;;;;;5030491;28;20194;-68
2024/01/26 12:36:37;;;;;;;0.77;0.77;;;1.80;99.90;;;;;;5030166;28;20210;-68
2024/01/26 12:39:03;;;;;;;0.60;0.60;;;1.80;99.90;;;;;;5030593;28;20190;-68
2024/01/26 12:41:29;;;;;;;0.70;0.70;;;1.80;99.90;;;;;;5030519;28;20720;-68
2024/01/26 12:43:56;;;;;;;0.70;0.70;;;1.80;99.90;;;;;;5030505;28;20198;-69
2024/01/26 12:46:22;;;;;;;0.70;0.70;;;1.90;99.90;;;;;;5030230;28;20201;-68
2024/01/26 12:48:48;;;;;;;0.70;0.70;;;1.80;99.90;;;;;;5030498;28;20212;-69
2024/01/26 12:51:13;;;;;;;0.70;0.70;;;1.80;99.90;;;;;;5030393;28;20201;-70